Cosco Kaohsiung — VREM3 — position and weather

sailwx.info

Track history (hours):
 
Tides and Currents Weather Stations Pressure Air Temp Water Temp Dewpoint Dewpoint Depression Visibility Wind Speed Wind Dir Waves Ship Positions

Cosco Kaohsiung

Last reported at 2016-Jul-23 04:32 UTC. Time now 2016-Jul-25 15:56 UTC.
Position N 01°57' E 102°17'.

Length 349 m; draft 12.6 m.

Type: Ship (hazmat cat A). MMSI: 477136800.

Date/timePositionNaut miles runAvg speedWind from/ knotsBaromVisibWave heightAir tempDewpointWater temp
2016-Jul-23 04:32N 01°57' E 102°17'1717.1
2016-Jul-23 03:33N 01°49' E 102°32'1716.6
2016-Jul-23 02:33N 01°41' E 102°47'6215.4
2016-Jul-22 22:32N 01°14' E 103°42'5 4.9
2016-Jul-22 21:33N 01°16' E 103°47'0 0.0
2016-Jul-22 20:28N 01°16' E 103°47'0 0.0
2016-Jul-22 19:28N 01°16' E 103°47'0 0.0
2016-Jul-22 18:31N 01°16' E 103°47'0 0.0
2016-Jul-22 17:31N 01°16' E 103°47'0 0.0
2016-Jul-22 16:28N 01°16' E 103°47'0 0.0
2016-Jul-22 15:31N 01°16' E 103°47'0 0.0
2016-Jul-22 14:28N 01°16' E 103°47'0 0.0
2016-Jul-22 13:28N 01°16' E 103°47'0 0.0
2016-Jul-22 12:28N 01°16' E 103°47'0 0.0
2016-Jul-22 11:28N 01°16' E 103°47'0 0.0
2016-Jul-22 10:28N 01°16' E 103°47'0 0.0
2016-Jul-22 09:28N 01°16' E 103°47'0 0.0
2016-Jul-22 08:28N 01°16' E 103°47'0 0.0
2016-Jul-22 07:31N 01°16' E 103°47'22 7.3
2016-Jul-22 04:33N 01°16' E 104°08'  
2016-Jul-18 15:10N 22°34' E 114°16'33 2.0
2016-Jul-17 22:33N 22°13' E 113°49'1111.3
2016-Jul-17 21:33N 22°24' E 113°46'2 0.2
2016-Jul-17 10:32N 22°26' E 113°45'6 6.6
2016-Jul-17 09:33N 22°20' E 113°48'17 1.4
2016-Jul-16 21:33N 22°19' E 114°06'1 1.2
2016-Jul-16 20:25N 22°20' E 114°08'0 0.1
2016-Jul-16 19:19N 22°20' E 114°08'0 0.0
2016-Jul-16 18:31N 22°20' E 114°08'0 0.1
2016-Jul-16 17:31N 22°20' E 114°08'0 0.0
2016-Jul-16 16:19N 22°20' E 114°08'0 0.1
2016-Jul-16 15:19N 22°20' E 114°08'0 0.0
2016-Jul-16 14:07N 22°20' E 114°08'0 0.0
2016-Jul-16 13:31N 22°20' E 114°08'0 0.0
2016-Jul-16 12:31N 22°20' E 114°08'0 0.0
2016-Jul-16 11:31N 22°20' E 114°08'0 0.0
2016-Jul-16 10:19N 22°20' E 114°08'0 0.1
2016-Jul-16 09:30N 22°20' E 114°08'14514.2
2016-Jul-15 23:17N 22°48' E 116°41'1317.3
2016-Jul-15 22:34N 22°55' E 116°53'5717.4
2016-Jul-15 19:16N 23°27' E 117°45'3817.7
2016-Jul-15 17:08N 23°51' E 118°16'1017.5
2016-Jul-15 16:33N 23°58' E 118°25'1817.2
2016-Jul-15 15:31N 24°09' E 118°40'3617.7
2016-Jul-15 13:31N 24°33' E 119°09'5117.0
2016-Jul-15 10:32N 25°10' E 119°48'30116.4
2016-Jul-14 16:12N 29°34' E 122°30'1216.5
2016-Jul-14 15:28N 29°44' E 122°21'1112.0
2016-Jul-14 14:32N 29°52' E 122°12'8 7.7
2016-Jul-14 13:33N 29°53' E 122°03'0 0.0
2016-Jul-14 11:16N 29°53' E 122°03'0 0.0
2016-Jul-14 10:10N 29°53' E 122°03'0 0.0
2016-Jul-14 09:22N 29°53' E 122°03'0 0.0
2016-Jul-14 07:31N 29°53' E 122°03'0 0.0
2016-Jul-14 05:28N 29°53' E 122°03'0 0.0
2016-Jul-14 04:10N 29°53' E 122°03'0 0.0
2016-Jul-14 00:28N 29°53' E 122°03'0 0.0
2016-Jul-13 23:10N 29°53' E 122°03'0 0.0
2016-Jul-13 21:28N 29°53' E 122°03'2 1.9
2016-Jul-13 20:33N 29°54' E 122°05'9 8.8
2016-Jul-13 19:33N 29°49' E 122°13'8 7.7
2016-Jul-13 18:30N 29°46' E 122°22'0 0.0
2016-Jul-13 14:30N 29°47' E 122°22'0 0.1
2016-Jul-13 09:24N 29°47' E 122°22'  
Track history (hours):
 
Tides and Currents Weather Stations Pressure Air Temp Water Temp Dewpoint Dewpoint Depression Visibility Wind Speed Wind Dir Waves Ship Positions

Cosco Kaohsiung

Last reported at 2016-Jul-23 04:32 UTC. Time now 2016-Jul-25 15:56 UTC.
Position N 01°57' E 102°17'.

Length 349 m; draft 12.6 m.

Type: Ship (hazmat cat A). MMSI: 477136800.

Date/timePositionNaut miles runAvg speedWind from/ knotsBaromVisibWave heightAir tempDewpointWater temp
2016-Jul-23 04:32N 01°57' E 102°17'1717.1
2016-Jul-23 03:33N 01°49' E 102°32'1716.6
2016-Jul-23 02:33N 01°41' E 102°47'6215.4
2016-Jul-22 22:32N 01°14' E 103°42'5 4.9
2016-Jul-22 21:33N 01°16' E 103°47'0 0.0
2016-Jul-22 20:28N 01°16' E 103°47'0 0.0
2016-Jul-22 19:28N 01°16' E 103°47'0 0.0
2016-Jul-22 18:31N 01°16' E 103°47'0 0.0
2016-Jul-22 17:31N 01°16' E 103°47'0 0.0
2016-Jul-22 16:28N 01°16' E 103°47'0 0.0
2016-Jul-22 15:31N 01°16' E 103°47'0 0.0
2016-Jul-22 14:28N 01°16' E 103°47'0 0.0
2016-Jul-22 13:28N 01°16' E 103°47'0 0.0
2016-Jul-22 12:28N 01°16' E 103°47'0 0.0
2016-Jul-22 11:28N 01°16' E 103°47'0 0.0
2016-Jul-22 10:28N 01°16' E 103°47'0 0.0
2016-Jul-22 09:28N 01°16' E 103°47'0 0.0
2016-Jul-22 08:28N 01°16' E 103°47'0 0.0
2016-Jul-22 07:31N 01°16' E 103°47'22 7.3
2016-Jul-22 04:33N 01°16' E 104°08'  
2016-Jul-18 15:10N 22°34' E 114°16'33 2.0
2016-Jul-17 22:33N 22°13' E 113°49'1111.3
2016-Jul-17 21:33N 22°24' E 113°46'2 0.2
2016-Jul-17 10:32N 22°26' E 113°45'6 6.6
2016-Jul-17 09:33N 22°20' E 113°48'17 1.4
2016-Jul-16 21:33N 22°19' E 114°06'1 1.2
2016-Jul-16 20:25N 22°20' E 114°08'0 0.1
2016-Jul-16 19:19N 22°20' E 114°08'0 0.0
2016-Jul-16 18:31N 22°20' E 114°08'0 0.1
2016-Jul-16 17:31N 22°20' E 114°08'0 0.0
2016-Jul-16 16:19N 22°20' E 114°08'0 0.1
2016-Jul-16 15:19N 22°20' E 114°08'0 0.0
2016-Jul-16 14:07N 22°20' E 114°08'0 0.0
2016-Jul-16 13:31N 22°20' E 114°08'0 0.0
2016-Jul-16 12:31N 22°20' E 114°08'0 0.0
2016-Jul-16 11:31N 22°20' E 114°08'0 0.0
2016-Jul-16 10:19N 22°20' E 114°08'0 0.1
2016-Jul-16 09:30N 22°20' E 114°08'14514.2
2016-Jul-15 23:17N 22°48' E 116°41'1317.3
2016-Jul-15 22:34N 22°55' E 116°53'5717.4
2016-Jul-15 19:16N 23°27' E 117°45'3817.7
2016-Jul-15 17:08N 23°51' E 118°16'1017.5
2016-Jul-15 16:33N 23°58' E 118°25'1817.2
2016-Jul-15 15:31N 24°09' E 118°40'3617.7
2016-Jul-15 13:31N 24°33' E 119°09'5117.0
2016-Jul-15 10:32N 25°10' E 119°48'30116.4
2016-Jul-14 16:12N 29°34' E 122°30'1216.5
2016-Jul-14 15:28N 29°44' E 122°21'1112.0
2016-Jul-14 14:32N 29°52' E 122°12'8 7.7
2016-Jul-14 13:33N 29°53' E 122°03'0 0.0
2016-Jul-14 11:16N 29°53' E 122°03'0 0.0
2016-Jul-14 10:10N 29°53' E 122°03'0 0.0
2016-Jul-14 09:22N 29°53' E 122°03'0 0.0
2016-Jul-14 07:31N 29°53' E 122°03'0 0.0
2016-Jul-14 05:28N 29°53' E 122°03'0 0.0
2016-Jul-14 04:10N 29°53' E 122°03'0 0.0
2016-Jul-14 00:28N 29°53' E 122°03'0 0.0
2016-Jul-13 23:10N 29°53' E 122°03'0 0.0
2016-Jul-13 21:28N 29°53' E 122°03'2 1.9
2016-Jul-13 20:33N 29°54' E 122°05'9 8.8
2016-Jul-13 19:33N 29°49' E 122°13'8 7.7
2016-Jul-13 18:30N 29°46' E 122°22'0 0.0
2016-Jul-13 14:30N 29°47' E 122°22'0 0.1
2016-Jul-13 09:24N 29°47' E 122°22'  

Dump ship's entire track history